Time,TemperatureF,DewpointF,PressureIn,WindDirection,WindDirectionDegrees,WindSpeedMPH,WindSpeedGustMPH,Humidity,HourlyPrecipIn,Conditions,Clouds,dailyrainin,SoftwareType,DateUTC
2013-03-03 00:00:00,33.6,16.5,29.57,North,-999,-999.0,-999.0,49,-99.99,,,-99.99,meteohub,2013-03-03 05:00:00,
2013-03-03 00:01:00,33.6,16.5,29.57,North,-999,-999.0,-999.0,49,-99.99,,,-99.99,meteohub,2013-03-03 05:01:00,
2013-03-03 00:02:00,33.6,16.5,29.57,North,-999,-999.0,-999.0,49,-99.99,,,-99.99,meteohub,2013-03-03 05:02:00,
2013-03-03 00:07:00,33.4,16.3,29.57,North,-999,-999.0,-999.0,49,-99.99,,,-99.99,meteohub,2013-03-03 05:07:00,
2013-03-03 00:12:00,33.3,16.2,29.57,North,-999,-999.0,-999.0,49,-99.99,,,-99.99,meteohub,2013-03-03 05:12:00,
2013-03-03 00:17:00,33.3,16.2,29.57,North,-999,-999.0,-999.0,49,-99.99,,,-99.99,meteohub,2013-03-03 05:17:00,
2013-03-03 00:22:00,33.1,16.0,29.57,North,-999,-999.0,-999.0,49,-99.99,,,-99.99,meteohub,2013-03-03 05:22:00,
2013-03-03 00:27:00,33.1,16.0,29.57,North,-999,-999.0,-999.0,49,-99.99,,,-99.99,meteohub,2013-03-03 05:27:00,
2013-03-03 00:32:00,33.1,16.0,29.57,North,-999,-999.0,-999.0,49,-99.99,,,-99.99,meteohub,2013-03-03 05:32:00,
2013-03-03 00:37:00,32.9,15.8,29.57,North,-999,-999.0,-999.0,49,-99.99,,,-99.99,meteohub,2013-03-03 05:37:00,
2013-03-03 00:42:00,32.9,15.8,29.57,North,-999,-999.0,-999.0,49,-99.99,,,-99.99,meteohub,2013-03-03 05:42:00,
2013-03-03 00:47:00,32.7,15.8,29.57,North,-999,-999.0,-999.0,49,-99.99,,,-99.99,meteohub,2013-03-03 05:47:00,
2013-03-03 00:52:00,32.7,15.8,29.57,North,-999,-999.0,-999.0,49,-99.99,,,-99.99,meteohub,2013-03-03 05:52:00,
2013-03-03 00:57:00,32.7,15.8,29.57,North,-999,-999.0,-999.0,49,-99.99,,,-99.99,meteohub,2013-03-03 05:57:00,
2013-03-03 01:02:00,32.5,15.6,29.57,North,-999,-999.0,-999.0,49,-99.99,,,-99.99,meteohub,2013-03-03 06:02:00,
2013-03-03 01:07:00,32.5,15.6,29.57,North,-999,-999.0,-999.0,49,-99.99,,,-99.99,meteohub,2013-03-03 06:07:00,
2013-03-03 01:12:00,32.4,15.4,29.57,North,-999,-999.0,-999.0,49,-99.99,,,-99.99,meteohub,2013-03-03 06:12:00,
2013-03-03 01:17:00,32.4,15.4,29.57,North,-999,-999.0,-999.0,49,-99.99,,,-99.99,meteohub,2013-03-03 06:17:00,
2013-03-03 01:22:00,32.2,15.6,29.57,North,-999,-999.0,-999.0,50,-99.99,,,-99.99,meteohub,2013-03-03 06:22:00,
2013-03-03 01:27:00,32.2,15.6,29.57,North,-999,-999.0,-999.0,50,-99.99,,,-99.99,meteohub,2013-03-03 06:27:00,
2013-03-03 01:32:00,32.2,15.6,29.57,North,-999,-999.0,-999.0,50,-99.99,,,-99.99,meteohub,2013-03-03 06:32:00,
2013-03-03 01:37:00,32.0,15.4,29.57,North,-999,-999.0,-999.0,50,-99.99,,,-99.99,meteohub,2013-03-03 06:37:00,
2013-03-03 01:42:00,31.8,15.3,29.57,North,-999,-999.0,-999.0,50,-99.99,,,-99.99,meteohub,2013-03-03 06:42:00,
2013-03-03 01:47:00,31.8,15.8,29.57,North,-999,-999.0,-999.0,51,-99.99,,,-99.99,meteohub,2013-03-03 06:47:00,
2013-03-03 01:52:00,31.5,15.4,29.57,North,-999,-999.0,-999.0,51,-99.99,,,-99.99,meteohub,2013-03-03 06:52:00,
2013-03-03 01:57:00,31.3,15.3,29.57,North,-999,-999.0,-999.0,51,-99.99,,,-99.99,meteohub,2013-03-03 06:57:00,
2013-03-03 02:02:00,31.1,15.1,29.57,North,-999,-999.0,-999.0,51,-99.99,,,-99.99,meteohub,2013-03-03 07:02:00,
2013-03-03 02:07:00,30.9,14.9,29.57,North,-999,-999.0,-999.0,51,-99.99,,,-99.99,meteohub,2013-03-03 07:07:00,
2013-03-03 02:12:00,30.7,15.3,29.57,North,-999,-999.0,-999.0,52,-99.99,,,-99.99,meteohub,2013-03-03 07:12:00,
2013-03-03 02:17:00,30.6,15.1,29.57,North,-999,-999.0,-999.0,52,-99.99,,,-99.99,meteohub,2013-03-03 07:17:00,
2013-03-03 02:23:00,30.4,14.9,29.57,North,-999,-999.0,-999.0,52,-99.99,,,-99.99,meteohub,2013-03-03 07:23:00,
2013-03-03 02:28:00,30.2,14.7,29.57,North,-999,-999.0,-999.0,52,-99.99,,,-99.99,meteohub,2013-03-03 07:28:00,
2013-03-03 02:33:00,30.2,14.7,29.57,North,-999,-999.0,-999.0,52,-99.99,,,-99.99,meteohub,2013-03-03 07:33:00,
2013-03-03 02:38:00,30.0,14.5,29.57,North,-999,-999.0,-999.0,52,-99.99,,,-99.99,meteohub,2013-03-03 07:38:00,
2013-03-03 02:43:00,29.8,14.4,29.57,North,-999,-999.0,-999.0,52,-99.99,,,-99.99,meteohub,2013-03-03 07:43:00,
2013-03-03 02:48:00,29.8,14.9,29.57,North,-999,-999.0,-999.0,53,-99.99,,,-99.99,meteohub,2013-03-03 07:48:00,
2013-03-03 02:53:00,29.5,14.5,29.54,North,-999,-999.0,-999.0,53,-99.99,,,-99.99,meteohub,2013-03-03 07:53:00,
2013-03-03 02:58:00,29.5,14.5,29.54,North,-999,-999.0,-999.0,53,-99.99,,,-99.99,meteohub,2013-03-03 07:58:00,
2013-03-03 03:03:00,29.1,14.2,29.54,North,-999,-999.0,-999.0,53,-99.99,,,-99.99,meteohub,2013-03-03 08:03:00,
2013-03-03 03:09:00,28.9,14.0,29.54,North,-999,-999.0,-999.0,53,-99.99,,,-99.99,meteohub,2013-03-03 08:09:00,
2013-03-03 03:14:00,28.9,14.4,29.54,North,-999,-999.0,-999.0,54,-99.99,,,-99.99,meteohub,2013-03-03 08:14:00,
2013-03-03 03:19:00,28.8,14.2,29.54,North,-999,-999.0,-999.0,54,-99.99,,,-99.99,meteohub,2013-03-03 08:19:00,
2013-03-03 03:24:00,28.8,14.2,29.54,North,-999,-999.0,-999.0,54,-99.99,,,-99.99,meteohub,2013-03-03 08:24:00,
2013-03-03 03:29:00,28.6,14.0,29.54,North,-999,-999.0,-999.0,54,-99.99,,,-99.99,meteohub,2013-03-03 08:29:00,
2013-03-03 03:34:00,28.6,14.0,29.54,North,-999,-999.0,-999.0,54,-99.99,,,-99.99,meteohub,2013-03-03 08:34:00,
2013-03-03 03:39:00,28.4,14.4,29.54,North,-999,-999.0,-999.0,55,-99.99,,,-99.99,meteohub,2013-03-03 08:39:00,
2013-03-03 03:44:00,28.2,14.2,29.54,North,-999,-999.0,-999.0,55,-99.99,,,-99.99,meteohub,2013-03-03 08:44:00,
2013-03-03 03:49:00,28.2,14.2,29.54,North,-999,-999.0,-999.0,55,-99.99,,,-99.99,meteohub,2013-03-03 08:49:00,
2013-03-03 03:54:00,28.0,14.0,29.54,North,-999,-999.0,-999.0,55,-99.99,,,-99.99,meteohub,2013-03-03 08:54:00,
2013-03-03 04:00:00,28.0,14.4,29.54,North,-999,-999.0,-999.0,56,-99.99,,,-99.99,meteohub,2013-03-03 09:00:00,
2013-03-03 04:05:00,27.9,14.2,29.54,North,-999,-999.0,-999.0,56,-99.99,,,-99.99,meteohub,2013-03-03 09:05:00,
2013-03-03 04:10:00,27.9,14.2,29.54,North,-999,-999.0,-999.0,56,-99.99,,,-99.99,meteohub,2013-03-03 09:10:00,
2013-03-03 04:15:00,27.9,14.2,29.54,North,-999,-999.0,-999.0,56,-99.99,,,-99.99,meteohub,2013-03-03 09:15:00,
2013-03-03 04:20:00,27.7,14.0,29.54,North,-999,-999.0,-999.0,56,-99.99,,,-99.99,meteohub,2013-03-03 09:20:00,
2013-03-03 04:25:00,27.7,14.5,29.54,North,-999,-999.0,-999.0,57,-99.99,,,-99.99,meteohub,2013-03-03 09:25:00,
2013-03-03 04:30:00,27.5,14.4,29.54,North,-999,-999.0,-999.0,57,-99.99,,,-99.99,meteohub,2013-03-03 09:30:00,
2013-03-03 04:36:00,27.5,14.4,29.54,North,-999,-999.0,-999.0,57,-99.99,,,-99.99,meteohub,2013-03-03 09:36:00,
2013-03-03 04:41:00,27.3,14.2,29.54,North,-999,-999.0,-999.0,57,-99.99,,,-99.99,meteohub,2013-03-03 09:41:00,
2013-03-03 04:46:00,27.3,14.2,29.54,North,-999,-999.0,-999.0,57,-99.99,,,-99.99,meteohub,2013-03-03 09:46:00,
2013-03-03 04:51:00,27.3,14.2,29.54,North,-999,-999.0,-999.0,57,-99.99,,,-99.99,meteohub,2013-03-03 09:51:00,
2013-03-03 04:56:00,27.1,14.0,29.54,North,-999,-999.0,-999.0,57,-99.99,,,-99.99,meteohub,2013-03-03 09:56:00,
2013-03-03 05:01:00,27.1,14.4,29.54,North,-999,-999.0,-999.0,58,-99.99,,,-99.99,meteohub,2013-03-03 10:01:00,
2013-03-03 05:06:00,27.0,14.2,29.54,North,-999,-999.0,-999.0,58,-99.99,,,-99.99,meteohub,2013-03-03 10:06:00,
2013-03-03 05:11:00,27.0,14.2,29.54,North,-999,-999.0,-999.0,58,-99.99,,,-99.99,meteohub,2013-03-03 10:11:00,
2013-03-03 05:17:00,26.8,14.0,29.54,North,-999,-999.0,-999.0,58,-99.99,,,-99.99,meteohub,2013-03-03 10:17:00,
2013-03-03 05:22:00,26.8,14.4,29.54,North,-999,-999.0,-999.0,59,-99.99,,,-99.99,meteohub,2013-03-03 10:22:00,
2013-03-03 05:27:00,27.0,14.5,29.54,North,-999,-999.0,-999.0,59,-99.99,,,-99.99,meteohub,2013-03-03 10:27:00,
2013-03-03 05:32:00,27.0,14.5,29.54,North,-999,-999.0,-999.0,59,-99.99,,,-99.99,meteohub,2013-03-03 10:32:00,
2013-03-03 05:37:00,27.0,14.9,29.54,North,-999,-999.0,-999.0,60,-99.99,,,-99.99,meteohub,2013-03-03 10:37:00,
2013-03-03 05:42:00,27.1,15.1,29.54,North,-999,-999.0,-999.0,60,-99.99,,,-99.99,meteohub,2013-03-03 10:42:00,
2013-03-03 05:47:00,27.1,15.1,29.54,North,-999,-999.0,-999.0,60,-99.99,,,-99.99,meteohub,2013-03-03 10:47:00,
2013-03-03 05:52:00,27.3,15.6,29.54,North,-999,-999.0,-999.0,61,-99.99,,,-99.99,meteohub,2013-03-03 10:52:00,
2013-03-03 05:57:00,27.3,15.6,29.54,North,-999,-999.0,-999.0,61,-99.99,,,-99.99,meteohub,2013-03-03 10:57:00,
2013-03-03 06:02:00,27.5,15.8,29.54,North,-999,-999.0,-999.0,61,-99.99,,,-99.99,meteohub,2013-03-03 11:02:00,
2013-03-03 06:08:00,27.5,15.8,29.57,North,-999,-999.0,-999.0,61,-99.99,,,-99.99,meteohub,2013-03-03 11:08:00,
2013-03-03 06:13:00,27.7,16.0,29.57,North,-999,-999.0,-999.0,61,-99.99,,,-99.99,meteohub,2013-03-03 11:13:00,
2013-03-03 06:18:00,27.7,16.0,29.57,North,-999,-999.0,-999.0,61,-99.99,,,-99.99,meteohub,2013-03-03 11:18:00,
2013-03-03 06:23:00,27.7,16.0,29.57,North,-999,-999.0,-999.0,61,-99.99,,,-99.99,meteohub,2013-03-03 11:23:00,
2013-03-03 06:28:00,27.9,16.2,29.57,North,-999,-999.0,-999.0,61,-99.99,,,-99.99,meteohub,2013-03-03 11:28:00,
2013-03-03 06:33:00,27.9,16.2,29.57,North,-999,-999.0,-999.0,61,-99.99,,,-99.99,meteohub,2013-03-03 11:33:00,
2013-03-03 06:38:00,28.0,16.3,29.54,North,-999,-999.0,-999.0,61,-99.99,,,-99.99,meteohub,2013-03-03 11:38:00,
2013-03-03 06:43:00,28.6,16.9,29.54,North,-999,-999.0,-999.0,61,-99.99,,,-99.99,meteohub,2013-03-03 11:43:00,
2013-03-03 06:49:00,28.9,16.9,29.54,North,-999,-999.0,-999.0,60,-99.99,,,-99.99,meteohub,2013-03-03 11:49:00,
2013-03-03 06:54:00,29.5,16.9,29.57,North,-999,-999.0,-999.0,59,-99.99,,,-99.99,meteohub,2013-03-03 11:54:00,
2013-03-03 06:59:00,29.8,16.9,29.57,North,-999,-999.0,-999.0,58,-99.99,,,-99.99,meteohub,2013-03-03 11:59:00,
2013-03-03 07:04:00,30.0,17.1,29.60,North,-999,-999.0,-999.0,58,-99.99,,,-99.99,meteohub,2013-03-03 12:04:00,
2013-03-03 07:09:00,30.2,17.2,29.60,North,-999,-999.0,-999.0,58,-99.99,,,-99.99,meteohub,2013-03-03 12:09:00,
2013-03-03 07:14:00,30.6,17.2,29.60,North,-999,-999.0,-999.0,57,-99.99,,,-99.99,meteohub,2013-03-03 12:14:00,
2013-03-03 07:19:00,30.9,17.1,29.60,North,-999,-999.0,-999.0,56,-99.99,,,-99.99,meteohub,2013-03-03 12:19:00,
2013-03-03 07:25:00,31.3,17.4,29.60,North,-999,-999.0,-999.0,56,-99.99,,,-99.99,meteohub,2013-03-03 12:25:00,
2013-03-03 07:30:00,31.8,17.6,29.60,North,-999,-999.0,-999.0,55,-99.99,,,-99.99,meteohub,2013-03-03 12:30:00,
2013-03-03 07:35:00,32.2,18.0,29.63,North,-999,-999.0,-999.0,55,-99.99,,,-99.99,meteohub,2013-03-03 12:35:00,
2013-03-03 07:40:00,32.4,18.0,29.63,North,-999,-999.0,-999.0,55,-99.99,,,-99.99,meteohub,2013-03-03 12:40:00,
2013-03-03 07:45:00,32.7,18.0,29.63,North,-999,-999.0,-999.0,54,-99.99,,,-99.99,meteohub,2013-03-03 12:45:00,
2013-03-03 07:50:00,32.9,17.8,29.63,North,-999,-999.0,-999.0,53,-99.99,,,-99.99,meteohub,2013-03-03 12:50:00,
2013-03-03 07:55:00,33.3,18.0,29.63,North,-999,-999.0,-999.0,53,-99.99,,,-99.99,meteohub,2013-03-03 12:55:00,
2013-03-03 08:00:00,33.6,18.3,29.63,North,-999,-999.0,-999.0,53,-99.99,,,-99.99,meteohub,2013-03-03 13:00:00,
2013-03-03 08:05:00,34.2,18.5,29.63,North,-999,-999.0,-999.0,52,-99.99,,,-99.99,meteohub,2013-03-03 13:05:00,
2013-03-03 08:11:00,34.2,17.6,29.63,North,-999,-999.0,-999.0,50,-99.99,,,-99.99,meteohub,2013-03-03 13:11:00,
2013-03-03 08:16:00,34.5,18.3,29.63,North,-999,-999.0,-999.0,51,-99.99,,,-99.99,meteohub,2013-03-03 13:16:00,
2013-03-03 08:21:00,35.1,18.3,29.63,North,-999,-999.0,-999.0,50,-99.99,,,-99.99,meteohub,2013-03-03 13:21:00,
2013-03-03 08:26:00,35.6,18.3,29.63,North,-999,-999.0,-999.0,49,-99.99,,,-99.99,meteohub,2013-03-03 13:26:00,
2013-03-03 08:31:00,35.8,17.6,29.63,North,-999,-999.0,-999.0,47,-99.99,,,-99.99,meteohub,2013-03-03 13:31:00,
2013-03-03 08:36:00,36.0,17.8,29.63,North,-999,-999.0,-999.0,47,-99.99,,,-99.99,meteohub,2013-03-03 13:36:00,
2013-03-03 08:41:00,36.1,16.9,29.63,North,-999,-999.0,-999.0,45,-99.99,,,-99.99,meteohub,2013-03-03 13:41:00,
2013-03-03 08:47:00,36.3,17.1,29.63,North,-999,-999.0,-999.0,45,-99.99,,,-99.99,meteohub,2013-03-03 13:47:00,
2013-03-03 08:52:00,36.3,16.5,29.63,North,-999,-999.0,-999.0,44,-99.99,,,-99.99,meteohub,2013-03-03 13:52:00,
2013-03-03 08:57:00,36.7,16.9,29.63,North,-999,-999.0,-999.0,44,-99.99,,,-99.99,meteohub,2013-03-03 13:57:00,
2013-03-03 09:02:00,37.0,17.2,29.63,North,-999,-999.0,-999.0,44,-99.99,,,-99.99,meteohub,2013-03-03 14:02:00,
2013-03-03 09:07:00,37.0,16.7,29.63,North,-999,-999.0,-999.0,43,-99.99,,,-99.99,meteohub,2013-03-03 14:07:00,
2013-03-03 09:12:00,37.2,16.9,29.63,North,-999,-999.0,-999.0,43,-99.99,,,-99.99,meteohub,2013-03-03 14:12:00,
2013-03-03 09:17:00,37.8,16.7,29.63,North,-999,-999.0,-999.0,42,-99.99,,,-99.99,meteohub,2013-03-03 14:17:00,
2013-03-03 09:22:00,37.9,16.9,29.63,North,-999,-999.0,-999.0,42,-99.99,,,-99.99,meteohub,2013-03-03 14:22:00,
2013-03-03 09:27:00,38.3,17.2,29.63,North,-999,-999.0,-999.0,42,-99.99,,,-99.99,meteohub,2013-03-03 14:27:00,
2013-03-03 09:32:00,39.2,18.1,29.63,North,-999,-999.0,-999.0,42,-99.99,,,-99.99,meteohub,2013-03-03 14:32:00,
2013-03-03 09:37:00,39.7,18.5,29.63,North,-999,-999.0,-999.0,42,-99.99,,,-99.99,meteohub,2013-03-03 14:37:00,
2013-03-03 09:42:00,40.1,18.3,29.63,North,-999,-999.0,-999.0,41,-99.99,,,-99.99,meteohub,2013-03-03 14:42:00,
2013-03-03 09:47:00,41.0,19.2,29.63,North,-999,-999.0,-999.0,41,-99.99,,,-99.99,meteohub,2013-03-03 14:47:00,
2013-03-03 09:52:00,41.0,18.5,29.60,North,-999,-999.0,-999.0,40,-99.99,,,-99.99,meteohub,2013-03-03 14:52:00,
2013-03-03 09:57:00,40.5,18.1,29.60,North,-999,-999.0,-999.0,40,-99.99,,,-99.99,meteohub,2013-03-03 14:57:00,
2013-03-03 10:02:00,41.2,18.7,29.60,North,-999,-999.0,-999.0,40,-99.99,,,-99.99,meteohub,2013-03-03 15:02:00,
2013-03-03 10:07:00,41.0,18.5,29.60,North,-999,-999.0,-999.0,40,-99.99,,,-99.99,meteohub,2013-03-03 15:07:00,
2013-03-03 10:12:00,40.5,18.1,29.60,North,-999,-999.0,-999.0,40,-99.99,,,-99.99,meteohub,2013-03-03 15:12:00,
2013-03-03 10:17:00,39.4,17.1,29.60,North,-999,-999.0,-999.0,40,-99.99,,,-99.99,meteohub,2013-03-03 15:17:00,
2013-03-03 10:22:00,39.7,17.4,29.60,North,-999,-999.0,-999.0,40,-99.99,,,-99.99,meteohub,2013-03-03 15:22:00,
2013-03-03 10:27:00,41.4,18.9,29.60,North,-999,-999.0,-999.0,40,-99.99,,,-99.99,meteohub,2013-03-03 15:27:00,
2013-03-03 10:32:00,41.7,18.7,29.60,North,-999,-999.0,-999.0,39,-99.99,,,-99.99,meteohub,2013-03-03 15:32:00,
2013-03-03 10:37:00,42.8,19.6,29.60,North,-999,-999.0,-999.0,39,-99.99,,,-99.99,meteohub,2013-03-03 15:37:00,
2013-03-03 10:42:00,44.1,20.7,29.60,North,-999,-999.0,-999.0,39,-99.99,,,-99.99,meteohub,2013-03-03 15:42:00,
2013-03-03 10:47:00,44.1,20.1,29.60,North,-999,-999.0,-999.0,38,-99.99,,,-99.99,meteohub,2013-03-03 15:47:00,
2013-03-03 10:52:00,44.2,20.3,29.60,North,-999,-999.0,-999.0,38,-99.99,,,-99.99,meteohub,2013-03-03 15:52:00,
2013-03-03 10:57:00,43.2,19.4,29.60,North,-999,-999.0,-999.0,38,-99.99,,,-99.99,meteohub,2013-03-03 15:57:00,
2013-03-03 11:02:00,42.4,19.2,29.60,North,-999,-999.0,-999.0,39,-99.99,,,-99.99,meteohub,2013-03-03 16:02:00,
2013-03-03 11:07:00,43.5,19.6,29.60,North,-999,-999.0,-999.0,38,-99.99,,,-99.99,meteohub,2013-03-03 16:07:00,
2013-03-03 11:12:00,45.1,21.0,29.60,North,-999,-999.0,-999.0,38,-99.99,,,-99.99,meteohub,2013-03-03 16:12:00,
2013-03-03 11:17:00,42.6,18.9,29.60,North,-999,-999.0,-999.0,38,-99.99,,,-99.99,meteohub,2013-03-03 16:17:00,
2013-03-03 11:22:00,44.6,20.7,29.60,North,-999,-999.0,-999.0,38,-99.99,,,-99.99,meteohub,2013-03-03 16:22:00,
2013-03-03 11:27:00,45.5,20.8,29.60,North,-999,-999.0,-999.0,37,-99.99,,,-99.99,meteohub,2013-03-03 16:27:00,
2013-03-03 11:32:00,45.7,21.0,29.60,North,-999,-999.0,-999.0,37,-99.99,,,-99.99,meteohub,2013-03-03 16:32:00,
2013-03-03 11:38:00,44.8,20.1,29.57,North,-999,-999.0,-999.0,37,-99.99,,,-99.99,meteohub,2013-03-03 16:38:00,
2013-03-03 11:43:00,46.2,22.1,29.57,North,-999,-999.0,-999.0,38,-99.99,,,-99.99,meteohub,2013-03-03 16:43:00,
2013-03-03 11:48:00,47.1,22.3,29.57,North,-999,-999.0,-999.0,37,-99.99,,,-99.99,meteohub,2013-03-03 16:48:00,
2013-03-03 11:53:00,47.3,21.7,29.57,North,-999,-999.0,-999.0,36,-99.99,,,-99.99,meteohub,2013-03-03 16:53:00,
2013-03-03 11:58:00,46.4,21.6,29.57,North,-999,-999.0,-999.0,37,-99.99,,,-99.99,meteohub,2013-03-03 16:58:00,
2013-03-03 12:03:00,46.9,22.1,29.57,North,-999,-999.0,-999.0,37,-99.99,,,-99.99,meteohub,2013-03-03 17:03:00,
2013-03-03 12:08:00,47.8,22.8,29.57,North,-999,-999.0,-999.0,37,-99.99,,,-99.99,meteohub,2013-03-03 17:08:00,
2013-03-03 12:13:00,48.2,22.6,29.57,North,-999,-999.0,-999.0,36,-99.99,,,-99.99,meteohub,2013-03-03 17:13:00,
2013-03-03 12:19:00,48.4,22.1,29.57,North,-999,-999.0,-999.0,35,-99.99,,,-99.99,meteohub,2013-03-03 17:19:00,
2013-03-03 12:24:00,47.3,20.5,29.57,North,-999,-999.0,-999.0,34,-99.99,,,-99.99,meteohub,2013-03-03 17:24:00,
2013-03-03 12:29:00,48.2,22.6,29.57,North,-999,-999.0,-999.0,36,-99.99,,,-99.99,meteohub,2013-03-03 17:29:00,
2013-03-03 12:34:00,47.1,20.3,29.57,North,-999,-999.0,-999.0,34,-99.99,,,-99.99,meteohub,2013-03-03 17:34:00,
2013-03-03 12:39:00,44.8,18.1,29.57,North,-999,-999.0,-999.0,34,-99.99,,,-99.99,meteohub,2013-03-03 17:39:00,
2013-03-03 12:44:00,44.8,18.9,29.57,North,-999,-999.0,-999.0,35,-99.99,,,-99.99,meteohub,2013-03-03 17:44:00,
2013-03-03 12:49:00,45.1,19.8,29.54,North,-999,-999.0,-999.0,36,-99.99,,,-99.99,meteohub,2013-03-03 17:49:00,
2013-03-03 12:54:00,45.3,19.9,29.54,North,-999,-999.0,-999.0,36,-99.99,,,-99.99,meteohub,2013-03-03 17:54:00,
2013-03-03 13:00:00,47.1,22.3,29.54,North,-999,-999.0,-999.0,37,-99.99,,,-99.99,meteohub,2013-03-03 18:00:00,
2013-03-03 13:05:00,48.4,23.4,29.54,North,-999,-999.0,-999.0,37,-99.99,,,-99.99,meteohub,2013-03-03 18:05:00,
2013-03-03 13:10:00,47.8,21.6,29.54,North,-999,-999.0,-999.0,35,-99.99,,,-99.99,meteohub,2013-03-03 18:10:00,
2013-03-03 13:15:00,47.8,20.8,29.54,North,-999,-999.0,-999.0,34,-99.99,,,-99.99,meteohub,2013-03-03 18:15:00,
2013-03-03 13:20:00,48.0,21.0,29.54,North,-999,-999.0,-999.0,34,-99.99,,,-99.99,meteohub,2013-03-03 18:20:00,
2013-03-03 13:25:00,48.0,21.7,29.54,North,-999,-999.0,-999.0,35,-99.99,,,-99.99,meteohub,2013-03-03 18:25:00,
2013-03-03 13:30:00,49.1,23.4,29.54,North,-999,-999.0,-999.0,36,-99.99,,,-99.99,meteohub,2013-03-03 18:30:00,
2013-03-03 13:35:00,49.6,23.9,29.54,North,-999,-999.0,-999.0,36,-99.99,,,-99.99,meteohub,2013-03-03 18:35:00,
2013-03-03 13:41:00,48.0,21.7,29.54,North,-999,-999.0,-999.0,35,-99.99,,,-99.99,meteohub,2013-03-03 18:41:00,
2013-03-03 13:46:00,48.4,22.1,29.54,North,-999,-999.0,-999.0,35,-99.99,,,-99.99,meteohub,2013-03-03 18:46:00,
2013-03-03 13:51:00,48.2,20.5,29.51,North,-999,-999.0,-999.0,33,-99.99,,,-99.99,meteohub,2013-03-03 18:51:00,
2013-03-03 13:56:00,47.7,20.7,29.51,North,-999,-999.0,-999.0,34,-99.99,,,-99.99,meteohub,2013-03-03 18:56:00,
2013-03-03 14:01:00,47.5,20.5,29.51,North,-999,-999.0,-999.0,34,-99.99,,,-99.99,meteohub,2013-03-03 19:01:00,
2013-03-03 14:06:00,47.5,20.5,29.51,North,-999,-999.0,-999.0,34,-99.99,,,-99.99,meteohub,2013-03-03 19:06:00,
2013-03-03 14:11:00,47.5,20.5,29.51,North,-999,-999.0,-999.0,34,-99.99,,,-99.99,meteohub,2013-03-03 19:11:00,
2013-03-03 14:16:00,47.8,21.6,29.51,North,-999,-999.0,-999.0,35,-99.99,,,-99.99,meteohub,2013-03-03 19:16:00,
2013-03-03 14:22:00,47.8,21.6,29.51,North,-999,-999.0,-999.0,35,-99.99,,,-99.99,meteohub,2013-03-03 19:22:00,
2013-03-03 14:27:00,47.8,22.3,29.51,North,-999,-999.0,-999.0,36,-99.99,,,-99.99,meteohub,2013-03-03 19:27:00,
2013-03-03 14:32:00,47.7,20.7,29.51,North,-999,-999.0,-999.0,34,-99.99,,,-99.99,meteohub,2013-03-03 19:32:00,
2013-03-03 14:37:00,47.5,21.2,29.51,North,-999,-999.0,-999.0,35,-99.99,,,-99.99,meteohub,2013-03-03 19:37:00,
2013-03-03 14:42:00,47.8,21.6,29.51,North,-999,-999.0,-999.0,35,-99.99,,,-99.99,meteohub,2013-03-03 19:42:00,
2013-03-03 14:47:00,47.5,21.2,29.51,North,-999,-999.0,-999.0,35,-99.99,,,-99.99,meteohub,2013-03-03 19:47:00,
2013-03-03 14:52:00,47.5,20.5,29.51,North,-999,-999.0,-999.0,34,-99.99,,,-99.99,meteohub,2013-03-03 19:52:00,
2013-03-03 14:57:00,47.7,21.4,29.51,North,-999,-999.0,-999.0,35,-99.99,,,-99.99,meteohub,2013-03-03 19:57:00,
2013-03-03 15:02:00,47.7,21.4,29.51,North,-999,-999.0,-999.0,35,-99.99,,,-99.99,meteohub,2013-03-03 20:02:00,
2013-03-03 15:07:00,47.3,21.0,29.51,North,-999,-999.0,-999.0,35,-99.99,,,-99.99,meteohub,2013-03-03 20:07:00,
2013-03-03 15:12:00,47.5,20.5,29.51,North,-999,-999.0,-999.0,34,-99.99,,,-99.99,meteohub,2013-03-03 20:12:00,
2013-03-03 15:17:00,47.1,20.3,29.51,North,-999,-999.0,-999.0,34,-99.99,,,-99.99,meteohub,2013-03-03 20:17:00,
2013-03-03 15:22:00,47.3,20.5,29.51,North,-999,-999.0,-999.0,34,-99.99,,,-99.99,meteohub,2013-03-03 20:22:00,
2013-03-03 15:27:00,47.1,20.3,29.51,North,-999,-999.0,-999.0,34,-99.99,,,-99.99,meteohub,2013-03-03 20:27:00,
2013-03-03 15:32:00,47.3,21.0,29.51,North,-999,-999.0,-999.0,35,-99.99,,,-99.99,meteohub,2013-03-03 20:32:00,
2013-03-03 15:37:00,46.8,20.7,29.51,North,-999,-999.0,-999.0,35,-99.99,,,-99.99,meteohub,2013-03-03 20:37:00,
2013-03-03 15:42:00,46.9,20.8,29.51,North,-999,-999.0,-999.0,35,-99.99,,,-99.99,meteohub,2013-03-03 20:42:00,
2013-03-03 15:47:00,46.2,19.4,29.51,North,-999,-999.0,-999.0,34,-99.99,,,-99.99,meteohub,2013-03-03 20:47:00,
2013-03-03 15:52:00,46.6,21.2,29.51,North,-999,-999.0,-999.0,36,-99.99,,,-99.99,meteohub,2013-03-03 20:52:00,
2013-03-03 15:57:00,46.6,20.5,29.51,North,-999,-999.0,-999.0,35,-99.99,,,-99.99,meteohub,2013-03-03 20:57:00,
2013-03-03 16:02:00,46.4,19.6,29.51,North,-999,-999.0,-999.0,34,-99.99,,,-99.99,meteohub,2013-03-03 21:02:00,
2013-03-03 16:07:00,46.4,19.6,29.51,North,-999,-999.0,-999.0,34,-99.99,,,-99.99,meteohub,2013-03-03 21:07:00,
2013-03-03 16:12:00,46.4,20.3,29.51,North,-999,-999.0,-999.0,35,-99.99,,,-99.99,meteohub,2013-03-03 21:12:00,
2013-03-03 16:17:00,46.2,20.1,29.51,North,-999,-999.0,-999.0,35,-99.99,,,-99.99,meteohub,2013-03-03 21:17:00,
2013-03-03 16:22:00,46.2,20.8,29.51,North,-999,-999.0,-999.0,36,-99.99,,,-99.99,meteohub,2013-03-03 21:22:00,
2013-03-03 16:27:00,45.9,19.8,29.51,North,-999,-999.0,-999.0,35,-99.99,,,-99.99,meteohub,2013-03-03 21:27:00,
2013-03-03 16:32:00,45.9,19.8,29.51,North,-999,-999.0,-999.0,35,-99.99,,,-99.99,meteohub,2013-03-03 21:32:00,
2013-03-03 16:37:00,45.9,20.5,29.51,North,-999,-999.0,-999.0,36,-99.99,,,-99.99,meteohub,2013-03-03 21:37:00,
2013-03-03 16:42:00,45.5,19.6,29.51,North,-999,-999.0,-999.0,35,-99.99,,,-99.99,meteohub,2013-03-03 21:42:00,
2013-03-03 16:47:00,45.1,19.2,29.51,North,-999,-999.0,-999.0,35,-99.99,,,-99.99,meteohub,2013-03-03 21:47:00,
2013-03-03 16:52:00,45.1,19.2,29.51,North,-999,-999.0,-999.0,35,-99.99,,,-99.99,meteohub,2013-03-03 21:52:00,
2013-03-03 16:57:00,44.8,18.9,29.51,North,-999,-999.0,-999.0,35,-99.99,,,-99.99,meteohub,2013-03-03 21:57:00,
2013-03-03 17:02:00,44.6,19.4,29.51,North,-999,-999.0,-999.0,36,-99.99,,,-99.99,meteohub,2013-03-03 22:02:00,
2013-03-03 17:07:00,44.4,19.8,29.51,North,-999,-999.0,-999.0,37,-99.99,,,-99.99,meteohub,2013-03-03 22:07:00,
2013-03-03 17:12:00,44.4,19.8,29.51,North,-999,-999.0,-999.0,37,-99.99,,,-99.99,meteohub,2013-03-03 22:12:00,
2013-03-03 17:17:00,44.1,19.6,29.51,North,-999,-999.0,-999.0,37,-99.99,,,-99.99,meteohub,2013-03-03 22:17:00,
2013-03-03 17:22:00,43.5,19.0,29.54,North,-999,-999.0,-999.0,37,-99.99,,,-99.99,meteohub,2013-03-03 22:22:00,
2013-03-03 17:27:00,43.5,19.0,29.54,North,-999,-999.0,-999.0,37,-99.99,,,-99.99,meteohub,2013-03-03 22:27:00,
2013-03-03 17:32:00,43.2,19.4,29.54,North,-999,-999.0,-999.0,38,-99.99,,,-99.99,meteohub,2013-03-03 22:32:00,
2013-03-03 17:37:00,43.2,19.4,29.54,North,-999,-999.0,-999.0,38,-99.99,,,-99.99,meteohub,2013-03-03 22:37:00,
2013-03-03 17:42:00,43.0,19.2,29.54,North,-999,-999.0,-999.0,38,-99.99,,,-99.99,meteohub,2013-03-03 22:42:00,
2013-03-03 17:47:00,42.8,19.0,29.54,North,-999,-999.0,-999.0,38,-99.99,,,-99.99,meteohub,2013-03-03 22:47:00,
2013-03-03 17:52:00,42.4,18.7,29.54,North,-999,-999.0,-999.0,38,-99.99,,,-99.99,meteohub,2013-03-03 22:52:00,
2013-03-03 17:57:00,42.1,19.0,29.54,North,-999,-999.0,-999.0,39,-99.99,,,-99.99,meteohub,2013-03-03 22:57:00,
2013-03-03 18:02:00,42.1,19.0,29.54,North,-999,-999.0,-999.0,39,-99.99,,,-99.99,meteohub,2013-03-03 23:02:00,
2013-03-03 18:07:00,41.9,18.9,29.57,North,-999,-999.0,-999.0,39,-99.99,,,-99.99,meteohub,2013-03-03 23:07:00,
2013-03-03 18:12:00,41.7,18.7,29.57,North,-999,-999.0,-999.0,39,-99.99,,,-99.99,meteohub,2013-03-03 23:12:00,
2013-03-03 18:17:00,41.4,18.3,29.57,North,-999,-999.0,-999.0,39,-99.99,,,-99.99,meteohub,2013-03-03 23:17:00,
2013-03-03 18:23:00,41.0,18.0,29.57,North,-999,-999.0,-999.0,39,-99.99,,,-99.99,meteohub,2013-03-03 23:23:00,
2013-03-03 18:28:00,40.8,17.8,29.57,North,-999,-999.0,-999.0,39,-99.99,,,-99.99,meteohub,2013-03-03 23:28:00,
2013-03-03 18:33:00,40.6,17.6,29.57,North,-999,-999.0,-999.0,39,-99.99,,,-99.99,meteohub,2013-03-03 23:33:00,
2013-03-03 18:38:00,40.3,17.4,29.57,North,-999,-999.0,-999.0,39,-99.99,,,-99.99,meteohub,2013-03-03 23:38:00,
2013-03-03 18:43:00,40.1,17.2,29.57,North,-999,-999.0,-999.0,39,-99.99,,,-99.99,meteohub,2013-03-03 23:43:00,
2013-03-03 18:48:00,39.9,17.1,29.57,North,-999,-999.0,-999.0,39,-99.99,,,-99.99,meteohub,2013-03-03 23:48:00,
2013-03-03 18:53:00,39.6,17.2,29.57,North,-999,-999.0,-999.0,40,-99.99,,,-99.99,meteohub,2013-03-03 23:53:00,
2013-03-03 18:58:00,39.4,17.1,29.57,North,-999,-999.0,-999.0,40,-99.99,,,-99.99,meteohub,2013-03-03 23:58:00,
2013-03-03 19:03:00,39.2,16.9,29.57,North,-999,-999.0,-999.0,40,-99.99,,,-99.99,meteohub,2013-03-04 00:03:00,
2013-03-03 19:08:00,38.8,16.7,29.60,North,-999,-999.0,-999.0,40,-99.99,,,-99.99,meteohub,2013-03-04 00:08:00,
2013-03-03 19:14:00,38.7,16.5,29.60,North,-999,-999.0,-999.0,40,-99.99,,,-99.99,meteohub,2013-03-04 00:14:00,
2013-03-03 19:19:00,38.5,16.3,29.60,North,-999,-999.0,-999.0,40,-99.99,,,-99.99,meteohub,2013-03-04 00:19:00,
2013-03-03 19:24:00,38.3,16.2,29.60,North,-999,-999.0,-999.0,40,-99.99,,,-99.99,meteohub,2013-03-04 00:24:00,
2013-03-03 19:29:00,38.1,16.0,29.60,North,-999,-999.0,-999.0,40,-99.99,,,-99.99,meteohub,2013-03-04 00:29:00,
2013-03-03 19:34:00,37.8,15.6,29.60,North,-999,-999.0,-999.0,40,-99.99,,,-99.99,meteohub,2013-03-04 00:34:00,
2013-03-03 19:39:00,37.6,15.4,29.60,North,-999,-999.0,-999.0,40,-99.99,,,-99.99,meteohub,2013-03-04 00:39:00,
2013-03-03 19:44:00,37.4,15.3,29.60,North,-999,-999.0,-999.0,40,-99.99,,,-99.99,meteohub,2013-03-04 00:44:00,
2013-03-03 19:49:00,37.2,15.8,29.60,North,-999,-999.0,-999.0,41,-99.99,,,-99.99,meteohub,2013-03-04 00:49:00,
2013-03-03 19:55:00,37.0,15.6,29.60,North,-999,-999.0,-999.0,41,-99.99,,,-99.99,meteohub,2013-03-04 00:55:00,
2013-03-03 20:00:00,36.7,15.3,29.60,North,-999,-999.0,-999.0,41,-99.99,,,-99.99,meteohub,2013-03-04 01:00:00,
2013-03-03 20:05:00,36.5,15.1,29.60,North,-999,-999.0,-999.0,41,-99.99,,,-99.99,meteohub,2013-03-04 01:05:00,
2013-03-03 20:10:00,36.3,14.9,29.60,North,-999,-999.0,-999.0,41,-99.99,,,-99.99,meteohub,2013-03-04 01:10:00,
2013-03-03 20:15:00,36.1,14.7,29.60,North,-999,-999.0,-999.0,41,-99.99,,,-99.99,meteohub,2013-03-04 01:15:00,
2013-03-03 20:21:00,36.1,14.7,29.60,North,-999,-999.0,-999.0,41,-99.99,,,-99.99,meteohub,2013-03-04 01:21:00,
2013-03-03 20:26:00,35.8,14.4,29.60,North,-999,-999.0,-999.0,41,-99.99,,,-99.99,meteohub,2013-03-04 01:26:00,
2013-03-03 20:31:00,35.8,14.4,29.60,North,-999,-999.0,-999.0,41,-99.99,,,-99.99,meteohub,2013-03-04 01:31:00,
2013-03-03 20:36:00,35.6,14.4,29.60,North,-999,-999.0,-999.0,41,-99.99,,,-99.99,meteohub,2013-03-04 01:36:00,
2013-03-03 20:41:00,35.4,14.7,29.60,North,-999,-999.0,-999.0,42,-99.99,,,-99.99,meteohub,2013-03-04 01:41:00,
2013-03-03 20:46:00,35.4,14.7,29.60,North,-999,-999.0,-999.0,42,-99.99,,,-99.99,meteohub,2013-03-04 01:46:00,
2013-03-03 20:52:00,35.2,14.5,29.63,North,-999,-999.0,-999.0,42,-99.99,,,-99.99,meteohub,2013-03-04 01:52:00,
2013-03-03 20:57:00,35.2,14.5,29.63,North,-999,-999.0,-999.0,42,-99.99,,,-99.99,meteohub,2013-03-04 01:57:00,
2013-03-03 21:02:00,35.1,14.4,29.63,North,-999,-999.0,-999.0,42,-99.99,,,-99.99,meteohub,2013-03-04 02:02:00,
2013-03-03 21:07:00,35.1,14.4,29.63,North,-999,-999.0,-999.0,42,-99.99,,,-99.99,meteohub,2013-03-04 02:07:00,
2013-03-03 21:12:00,34.9,14.2,29.63,North,-999,-999.0,-999.0,42,-99.99,,,-99.99,meteohub,2013-03-04 02:12:00,
2013-03-03 21:17:00,34.9,14.2,29.63,North,-999,-999.0,-999.0,42,-99.99,,,-99.99,meteohub,2013-03-04 02:17:00,
2013-03-03 21:22:00,34.7,14.0,29.63,North,-999,-999.0,-999.0,42,-99.99,,,-99.99,meteohub,2013-03-04 02:22:00,
2013-03-03 21:27:00,34.7,14.0,29.63,North,-999,-999.0,-999.0,42,-99.99,,,-99.99,meteohub,2013-03-04 02:27:00,
2013-03-03 21:32:00,34.5,13.8,29.63,North,-999,-999.0,-999.0,42,-99.99,,,-99.99,meteohub,2013-03-04 02:32:00,
2013-03-03 21:37:00,34.3,13.6,29.63,North,-999,-999.0,-999.0,42,-99.99,,,-99.99,meteohub,2013-03-04 02:37:00,
2013-03-03 21:42:00,34.3,13.6,29.63,North,-999,-999.0,-999.0,42,-99.99,,,-99.99,meteohub,2013-03-04 02:42:00,
2013-03-03 21:47:00,34.2,14.0,29.63,North,-999,-999.0,-999.0,43,-99.99,,,-99.99,meteohub,2013-03-04 02:47:00,
2013-03-03 21:52:00,34.0,13.8,29.63,North,-999,-999.0,-999.0,43,-99.99,,,-99.99,meteohub,2013-03-04 02:52:00,
2013-03-03 21:57:00,34.0,13.8,29.63,North,-999,-999.0,-999.0,43,-99.99,,,-99.99,meteohub,2013-03-04 02:57:00,
2013-03-03 22:03:00,33.8,13.8,29.63,North,-999,-999.0,-999.0,43,-99.99,,,-99.99,meteohub,2013-03-04 03:03:00,
2013-03-03 22:08:00,33.6,13.6,29.63,North,-999,-999.0,-999.0,43,-99.99,,,-99.99,meteohub,2013-03-04 03:08:00,
2013-03-03 22:13:00,33.6,14.2,29.63,North,-999,-999.0,-999.0,44,-99.99,,,-99.99,meteohub,2013-03-04 03:13:00,
2013-03-03 22:18:00,33.6,14.2,29.63,North,-999,-999.0,-999.0,44,-99.99,,,-99.99,meteohub,2013-03-04 03:18:00,
2013-03-03 22:23:00,33.4,14.0,29.63,North,-999,-999.0,-999.0,44,-99.99,,,-99.99,meteohub,2013-03-04 03:23:00,
2013-03-03 22:28:00,33.3,13.8,29.63,North,-999,-999.0,-999.0,44,-99.99,,,-99.99,meteohub,2013-03-04 03:28:00,
2013-03-03 22:33:00,33.1,13.6,29.63,North,-999,-999.0,-999.0,44,-99.99,,,-99.99,meteohub,2013-03-04 03:33:00,
2013-03-03 22:39:00,32.9,13.5,29.63,North,-999,-999.0,-999.0,44,-99.99,,,-99.99,meteohub,2013-03-04 03:39:00,
2013-03-03 22:44:00,32.9,13.5,29.63,North,-999,-999.0,-999.0,44,-99.99,,,-99.99,meteohub,2013-03-04 03:44:00,
2013-03-03 22:49:00,32.9,13.5,29.63,North,-999,-999.0,-999.0,44,-99.99,,,-99.99,meteohub,2013-03-04 03:49:00,
2013-03-03 22:54:00,32.9,13.5,29.63,North,-999,-999.0,-999.0,44,-99.99,,,-99.99,meteohub,2013-03-04 03:54:00,
2013-03-03 22:59:00,32.7,13.3,29.63,North,-999,-999.0,-999.0,44,-99.99,,,-99.99,meteohub,2013-03-04 03:59:00,
2013-03-03 23:04:00,32.7,13.3,29.63,North,-999,-999.0,-999.0,44,-99.99,,,-99.99,meteohub,2013-03-04 04:04:00,
2013-03-03 23:09:00,32.5,13.1,29.63,North,-999,-999.0,-999.0,44,-99.99,,,-99.99,meteohub,2013-03-04 04:09:00,
2013-03-03 23:15:00,32.4,13.5,29.63,North,-999,-999.0,-999.0,45,-99.99,,,-99.99,meteohub,2013-03-04 04:15:00,
2013-03-03 23:20:00,32.2,13.3,29.63,North,-999,-999.0,-999.0,45,-99.99,,,-99.99,meteohub,2013-03-04 04:20:00,
2013-03-03 23:25:00,31.8,12.9,29.63,North,-999,-999.0,-999.0,45,-99.99,,,-99.99,meteohub,2013-03-04 04:25:00,
2013-03-03 23:30:00,31.6,13.3,29.63,North,-999,-999.0,-999.0,46,-99.99,,,-99.99,meteohub,2013-03-04 04:30:00,
2013-03-03 23:35:00,31.5,13.1,29.63,North,-999,-999.0,-999.0,46,-99.99,,,-99.99,meteohub,2013-03-04 04:35:00,
2013-03-03 23:40:00,31.5,13.1,29.63,North,-999,-999.0,-999.0,46,-99.99,,,-99.99,meteohub,2013-03-04 04:40:00,
2013-03-03 23:46:00,31.5,13.6,29.63,North,-999,-999.0,-999.0,47,-99.99,,,-99.99,meteohub,2013-03-04 04:46:00,
2013-03-03 23:51:00,31.3,12.9,29.63,North,-999,-999.0,-999.0,46,-99.99,,,-99.99,meteohub,2013-03-04 04:51:00,
2013-03-03 23:56:00,31.3,13.5,29.63,North,-999,-999.0,-999.0,47,-99.99,,,-99.99,meteohub,2013-03-04 04:56:00,